sensor_id;sensor_type;location;lat;lon;timestamp;P1;durP1;ratioP1;P2;durP2;ratioP2
29314;SDS011;16320;53.954;9.506;2023-11-19T00:01:02;20.33;;;12.32;;
29314;SDS011;16320;53.954;9.506;2023-11-19T00:03:32;17.60;;;11.15;;
29314;SDS011;16320;53.954;9.506;2023-11-19T00:06:01;19.42;;;10.80;;
29314;SDS011;16320;53.954;9.506;2023-11-19T00:08:30;15.50;;;9.90;;
29314;SDS011;16320;53.954;9.506;2023-11-19T00:10:58;21.35;;;10.35;;
29314;SDS011;16320;53.954;9.506;2023-11-19T00:13:27;16.73;;;10.35;;
29314;SDS011;16320;53.954;9.506;2023-11-19T00:16:17;18.30;;;11.32;;
29314;SDS011;16320;53.954;9.506;2023-11-19T00:18:49;19.15;;;11.05;;
29314;SDS011;16320;53.954;9.506;2023-11-19T00:21:21;17.52;;;10.77;;
29314;SDS011;16320;53.954;9.506;2023-11-19T00:23:53;14.60;;;9.93;;
29314;SDS011;16320;53.954;9.506;2023-11-19T00:26:24;15.00;;;9.52;;
29314;SDS011;16320;53.954;9.506;2023-11-19T00:28:54;15.23;;;9.80;;
29314;SDS011;16320;53.954;9.506;2023-11-19T00:31:25;19.50;;;10.77;;
29314;SDS011;16320;53.954;9.506;2023-11-19T00:34:05;15.68;;;9.80;;
29314;SDS011;16320;53.954;9.506;2023-11-19T00:36:38;17.90;;;10.70;;
29314;SDS011;16320;53.954;9.506;2023-11-19T00:39:06;15.73;;;10.23;;
29314;SDS011;16320;53.954;9.506;2023-11-19T00:41:35;20.25;;;10.45;;
29314;SDS011;16320;53.954;9.506;2023-11-19T00:44:06;17.33;;;10.98;;
29314;SDS011;16320;53.954;9.506;2023-11-19T00:46:34;18.38;;;10.93;;
29314;SDS011;16320;53.954;9.506;2023-11-19T00:49:03;16.23;;;11.13;;
29314;SDS011;16320;53.954;9.506;2023-11-19T00:51:31;15.70;;;10.98;;
29314;SDS011;16320;53.954;9.506;2023-11-19T00:53:59;16.45;;;9.75;;
29314;SDS011;16320;53.954;9.506;2023-11-19T00:56:28;16.33;;;10.82;;
29314;SDS011;16320;53.954;9.506;2023-11-19T00:58:56;16.27;;;9.95;;
29314;SDS011;16320;53.954;9.506;2023-11-19T01:01:25;18.33;;;11.05;;
29314;SDS011;16320;53.954;9.506;2023-11-19T01:03:56;15.95;;;10.70;;
29314;SDS011;16320;53.954;9.506;2023-11-19T01:06:27;17.73;;;10.73;;
29314;SDS011;16320;53.954;9.506;2023-11-19T01:08:57;15.43;;;10.10;;
29314;SDS011;16320;53.954;9.506;2023-11-19T01:11:27;14.88;;;10.07;;
29314;SDS011;16320;53.954;9.506;2023-11-19T01:13:56;15.00;;;9.05;;
29314;SDS011;16320;53.954;9.506;2023-11-19T01:16:25;14.50;;;9.63;;
29314;SDS011;16320;53.954;9.506;2023-11-19T01:18:55;14.88;;;10.32;;
29314;SDS011;16320;53.954;9.506;2023-11-19T01:21:37;14.73;;;9.48;;
29314;SDS011;16320;53.954;9.506;2023-11-19T01:24:05;13.45;;;9.43;;
29314;SDS011;16320;53.954;9.506;2023-11-19T01:26:35;14.48;;;10.30;;
29314;SDS011;16320;53.954;9.506;2023-11-19T01:29:04;19.52;;;10.82;;
29314;SDS011;16320;53.954;9.506;2023-11-19T01:31:32;19.58;;;10.40;;
29314;SDS011;16320;53.954;9.506;2023-11-19T01:34:02;16.02;;;9.77;;
29314;SDS011;16320;53.954;9.506;2023-11-19T01:36:31;14.80;;;9.32;;
29314;SDS011;16320;53.954;9.506;2023-11-19T01:38:59;17.40;;;9.60;;
29314;SDS011;16320;53.954;9.506;2023-11-19T01:41:36;14.93;;;9.38;;
29314;SDS011;16320;53.954;9.506;2023-11-19T01:44:05;15.18;;;9.13;;
29314;SDS011;16320;53.954;9.506;2023-11-19T01:46:34;14.90;;;9.32;;
29314;SDS011;16320;53.954;9.506;2023-11-19T01:49:06;16.98;;;9.32;;
29314;SDS011;16320;53.954;9.506;2023-11-19T01:51:38;14.98;;;9.82;;
29314;SDS011;16320;53.954;9.506;2023-11-19T01:54:07;14.90;;;10.20;;
29314;SDS011;16320;53.954;9.506;2023-11-19T01:56:37;15.30;;;9.88;;
29314;SDS011;16320;53.954;9.506;2023-11-19T01:59:10;15.90;;;9.52;;
29314;SDS011;16320;53.954;9.506;2023-11-19T02:01:40;12.23;;;8.75;;
29314;SDS011;16320;53.954;9.506;2023-11-19T02:04:09;13.23;;;9.13;;
29314;SDS011;16320;53.954;9.506;2023-11-19T02:06:40;13.38;;;9.23;;
29314;SDS011;16320;53.954;9.506;2023-11-19T02:09:11;15.65;;;10.50;;
29314;SDS011;16320;53.954;9.506;2023-11-19T02:11:40;16.33;;;10.27;;
29314;SDS011;16320;53.954;9.506;2023-11-19T02:14:09;14.73;;;10.52;;
29314;SDS011;16320;53.954;9.506;2023-11-19T02:16:37;14.60;;;10.82;;
29314;SDS011;16320;53.954;9.506;2023-11-19T02:19:05;16.13;;;10.93;;
29314;SDS011;16320;53.954;9.506;2023-11-19T02:21:34;15.57;;;11.23;;
29314;SDS011;16320;53.954;9.506;2023-11-19T02:24:06;14.82;;;10.73;;
29314;SDS011;16320;53.954;9.506;2023-11-19T02:29:38;15.80;;;11.15;;
29314;SDS011;16320;53.954;9.506;2023-11-19T02:32:06;13.10;;;9.82;;
29314;SDS011;16320;53.954;9.506;2023-11-19T02:34:36;14.60;;;10.02;;
29314;SDS011;16320;53.954;9.506;2023-11-19T02:37:05;16.80;;;9.65;;
29314;SDS011;16320;53.954;9.506;2023-11-19T02:39:33;13.85;;;9.25;;
29314;SDS011;16320;53.954;9.506;2023-11-19T02:42:02;12.77;;;8.65;;
29314;SDS011;16320;53.954;9.506;2023-11-19T02:44:30;12.70;;;7.75;;
29314;SDS011;16320;53.954;9.506;2023-11-19T02:47:00;10.95;;;7.35;;
29314;SDS011;16320;53.954;9.506;2023-11-19T02:49:30;11.95;;;6.65;;
29314;SDS011;16320;53.954;9.506;2023-11-19T02:51:59;8.98;;;6.13;;
29314;SDS011;16320;53.954;9.506;2023-11-19T02:54:27;7.28;;;5.88;;
29314;SDS011;16320;53.954;9.506;2023-11-19T02:56:55;8.63;;;6.10;;
29314;SDS011;16320;53.954;9.506;2023-11-19T02:59:28;10.43;;;6.25;;
29314;SDS011;16320;53.954;9.506;2023-11-19T03:02:05;6.68;;;5.82;;
29314;SDS011;16320;53.954;9.506;2023-11-19T03:04:38;9.63;;;6.37;;
29314;SDS011;16320;53.954;9.506;2023-11-19T03:07:09;7.90;;;6.53;;
29314;SDS011;16320;53.954;9.506;2023-11-19T03:09:38;9.13;;;5.93;;
29314;SDS011;16320;53.954;9.506;2023-11-19T03:12:07;8.23;;;6.03;;
29314;SDS011;16320;53.954;9.506;2023-11-19T03:14:35;8.68;;;5.85;;
29314;SDS011;16320;53.954;9.506;2023-11-19T03:17:03;7.30;;;5.13;;
29314;SDS011;16320;53.954;9.506;2023-11-19T03:19:33;6.90;;;5.07;;
29314;SDS011;16320;53.954;9.506;2023-11-19T03:22:01;6.90;;;5.30;;
29314;SDS011;16320;53.954;9.506;2023-11-19T03:24:29;8.40;;;5.85;;
29314;SDS011;16320;53.954;9.506;2023-11-19T03:26:58;10.43;;;5.75;;
29314;SDS011;16320;53.954;9.506;2023-11-19T03:29:26;9.82;;;6.38;;
29314;SDS011;16320;53.954;9.506;2023-11-19T03:31:55;12.45;;;6.25;;
29314;SDS011;16320;53.954;9.506;2023-11-19T03:34:23;11.05;;;6.70;;
29314;SDS011;16320;53.954;9.506;2023-11-19T03:36:51;10.88;;;6.50;;
29314;SDS011;16320;53.954;9.506;2023-11-19T03:39:21;10.82;;;7.00;;
29314;SDS011;16320;53.954;9.506;2023-11-19T03:44:20;12.45;;;7.25;;
29314;SDS011;16320;53.954;9.506;2023-11-19T03:46:51;13.02;;;7.70;;
29314;SDS011;16320;53.954;9.506;2023-11-19T03:49:19;12.13;;;7.85;;
29314;SDS011;16320;53.954;9.506;2023-11-19T03:51:49;14.00;;;9.15;;
29314;SDS011;16320;53.954;9.506;2023-11-19T03:54:17;20.00;;;10.38;;
29314;SDS011;16320;53.954;9.506;2023-11-19T03:56:45;16.42;;;9.55;;
29314;SDS011;16320;53.954;9.506;2023-11-19T03:59:13;21.85;;;12.18;;
29314;SDS011;16320;53.954;9.506;2023-11-19T04:01:45;25.65;;;11.05;;
29314;SDS011;16320;53.954;9.506;2023-11-19T04:04:13;22.00;;;11.93;;
29314;SDS011;16320;53.954;9.506;2023-11-19T04:06:42;23.50;;;11.70;;
29314;SDS011;16320;53.954;9.506;2023-11-19T04:09:10;23.88;;;11.77;;
29314;SDS011;16320;53.954;9.506;2023-11-19T04:11:38;22.42;;;12.00;;
29314;SDS011;16320;53.954;9.506;2023-11-19T04:14:08;24.73;;;12.68;;
29314;SDS011;16320;53.954;9.506;2023-11-19T04:16:37;26.73;;;13.27;;
29314;SDS011;16320;53.954;9.506;2023-11-19T04:19:05;24.75;;;13.68;;
29314;SDS011;16320;53.954;9.506;2023-11-19T04:21:33;27.58;;;13.00;;
29314;SDS011;16320;53.954;9.506;2023-11-19T04:24:03;35.22;;;14.90;;
29314;SDS011;16320;53.954;9.506;2023-11-19T04:26:32;33.00;;;15.30;;
29314;SDS011;16320;53.954;9.506;2023-11-19T04:29:01;38.67;;;15.68;;
29314;SDS011;16320;53.954;9.506;2023-11-19T04:31:34;44.10;;;17.08;;
29314;SDS011;16320;53.954;9.506;2023-11-19T04:34:02;37.65;;;16.00;;
29314;SDS011;16320;53.954;9.506;2023-11-19T04:36:30;42.13;;;17.90;;
29314;SDS011;16320;53.954;9.506;2023-11-19T04:39:01;42.78;;;18.45;;
29314;SDS011;16320;53.954;9.506;2023-11-19T04:41:35;45.70;;;18.58;;
29314;SDS011;16320;53.954;9.506;2023-11-19T04:44:05;46.38;;;19.25;;
29314;SDS011;16320;53.954;9.506;2023-11-19T04:46:35;52.40;;;18.60;;
29314;SDS011;16320;53.954;9.506;2023-11-19T04:49:04;45.97;;;18.40;;
29314;SDS011;16320;53.954;9.506;2023-11-19T04:51:37;52.47;;;18.33;;
29314;SDS011;16320;53.954;9.506;2023-11-19T04:54:11;54.78;;;20.52;;
29314;SDS011;16320;53.954;9.506;2023-11-19T04:56:39;53.42;;;21.00;;
29314;SDS011;16320;53.954;9.506;2023-11-19T04:59:12;61.83;;;22.60;;
29314;SDS011;16320;53.954;9.506;2023-11-19T05:01:41;54.95;;;20.27;;
29314;SDS011;16320;53.954;9.506;2023-11-19T05:04:09;59.83;;;22.48;;
29314;SDS011;16320;53.954;9.506;2023-11-19T05:06:38;64.18;;;21.45;;
29314;SDS011;16320;53.954;9.506;2023-11-19T05:09:10;59.97;;;21.85;;
29314;SDS011;16320;53.954;9.506;2023-11-19T05:11:42;63.28;;;21.73;;
29314;SDS011;16320;53.954;9.506;2023-11-19T05:14:13;67.85;;;22.90;;
29314;SDS011;16320;53.954;9.506;2023-11-19T05:16:47;65.13;;;23.17;;
29314;SDS011;16320;53.954;9.506;2023-11-19T05:19:16;65.75;;;22.45;;
29314;SDS011;16320;53.954;9.506;2023-11-19T05:21:46;71.95;;;23.92;;
29314;SDS011;16320;53.954;9.506;2023-11-19T05:24:18;69.68;;;22.63;;
29314;SDS011;16320;53.954;9.506;2023-11-19T05:26:55;74.03;;;23.42;;
29314;SDS011;16320;53.954;9.506;2023-11-19T05:29:24;73.38;;;22.98;;
29314;SDS011;16320;53.954;9.506;2023-11-19T05:31:56;74.13;;;23.73;;
29314;SDS011;16320;53.954;9.506;2023-11-19T05:35:10;98.95;;;24.88;;
29314;SDS011;16320;53.954;9.506;2023-11-19T05:37:55;74.45;;;22.98;;
29314;SDS011;16320;53.954;9.506;2023-11-19T05:40:55;65.47;;;20.73;;
29314;SDS011;16320;53.954;9.506;2023-11-19T05:43:23;67.20;;;21.77;;
29314;SDS011;16320;53.954;9.506;2023-11-19T05:45:51;66.35;;;19.30;;
29314;SDS011;16320;53.954;9.506;2023-11-19T05:51:44;58.33;;;18.05;;
29314;SDS011;16320;53.954;9.506;2023-11-19T05:54:32;82.20;;;17.23;;
29314;SDS011;16320;53.954;9.506;2023-11-19T05:57:19;69.10;;;16.48;;
29314;SDS011;16320;53.954;9.506;2023-11-19T06:00:43;70.78;;;14.75;;
29314;SDS011;16320;53.954;9.506;2023-11-19T06:03:33;75.97;;;14.13;;
29314;SDS011;16320;53.954;9.506;2023-11-19T06:06:12;74.22;;;13.98;;
29314;SDS011;16320;53.954;9.506;2023-11-19T06:08:58;66.22;;;14.45;;
29314;SDS011;16320;53.954;9.506;2023-11-19T06:11:47;72.15;;;13.15;;
29314;SDS011;16320;53.954;9.506;2023-11-19T06:17:23;75.45;;;15.23;;
29314;SDS011;16320;53.954;9.506;2023-11-19T06:19:51;63.60;;;11.85;;
29314;SDS011;16320;53.954;9.506;2023-11-19T06:22:40;58.63;;;12.60;;
29314;SDS011;16320;53.954;9.506;2023-11-19T06:25:25;54.95;;;11.88;;
29314;SDS011;16320;53.954;9.506;2023-11-19T06:28:29;77.70;;;13.07;;
29314;SDS011;16320;53.954;9.506;2023-11-19T06:31:27;65.72;;;14.57;;
29314;SDS011;16320;53.954;9.506;2023-11-19T06:34:30;61.20;;;10.50;;
29314;SDS011;16320;53.954;9.506;2023-11-19T06:37:05;57.08;;;10.48;;
29314;SDS011;16320;53.954;9.506;2023-11-19T06:39:51;58.25;;;10.15;;
29314;SDS011;16320;53.954;9.506;2023-11-19T06:42:20;83.47;;;11.25;;
29314;SDS011;16320;53.954;9.506;2023-11-19T06:44:53;48.27;;;9.50;;
29314;SDS011;16320;53.954;9.506;2023-11-19T06:47:32;69.88;;;10.73;;
29314;SDS011;16320;53.954;9.506;2023-11-19T06:50:00;68.15;;;9.80;;
29314;SDS011;16320;53.954;9.506;2023-11-19T06:52:43;64.82;;;10.80;;
29314;SDS011;16320;53.954;9.506;2023-11-19T06:55:13;68.40;;;10.43;;
29314;SDS011;16320;53.954;9.506;2023-11-19T06:57:42;64.07;;;9.52;;
29314;SDS011;16320;53.954;9.506;2023-11-19T07:00:13;60.05;;;9.10;;
29314;SDS011;16320;53.954;9.506;2023-11-19T07:02:44;67.65;;;8.95;;
29314;SDS011;16320;53.954;9.506;2023-11-19T07:05:13;60.25;;;8.40;;
29314;SDS011;16320;53.954;9.506;2023-11-19T07:07:45;74.60;;;9.93;;
29314;SDS011;16320;53.954;9.506;2023-11-19T07:10:20;59.65;;;10.82;;
29314;SDS011;16320;53.954;9.506;2023-11-19T07:12:51;83.13;;;11.23;;
29314;SDS011;16320;53.954;9.506;2023-11-19T07:15:32;66.50;;;9.77;;
29314;SDS011;16320;53.954;9.506;2023-11-19T07:18:06;61.88;;;9.05;;
29314;SDS011;16320;53.954;9.506;2023-11-19T07:20:45;63.03;;;9.00;;
29314;SDS011;16320;53.954;9.506;2023-11-19T07:23:13;65.25;;;9.15;;
29314;SDS011;16320;53.954;9.506;2023-11-19T07:25:59;66.63;;;10.88;;
29314;SDS011;16320;53.954;9.506;2023-11-19T07:28:56;82.78;;;11.50;;
29314;SDS011;16320;53.954;9.506;2023-11-19T07:31:34;78.32;;;10.75;;
29314;SDS011;16320;53.954;9.506;2023-11-19T07:34:03;81.35;;;13.27;;
29314;SDS011;16320;53.954;9.506;2023-11-19T07:36:41;68.97;;;8.75;;
29314;SDS011;16320;53.954;9.506;2023-11-19T07:39:16;53.85;;;8.45;;
29314;SDS011;16320;53.954;9.506;2023-11-19T07:41:51;86.30;;;12.05;;
29314;SDS011;16320;53.954;9.506;2023-11-19T07:45:15;68.95;;;10.25;;
29314;SDS011;16320;53.954;9.506;2023-11-19T07:48:11;80.60;;;8.45;;
29314;SDS011;16320;53.954;9.506;2023-11-19T07:50:54;63.60;;;8.32;;
29314;SDS011;16320;53.954;9.506;2023-11-19T07:53:53;64.70;;;9.02;;
29314;SDS011;16320;53.954;9.506;2023-11-19T08:00:37;73.47;;;8.80;;
29314;SDS011;16320;53.954;9.506;2023-11-19T08:03:06;63.65;;;9.48;;
29314;SDS011;16320;53.954;9.506;2023-11-19T08:05:52;53.67;;;8.50;;
29314;SDS011;16320;53.954;9.506;2023-11-19T08:08:24;63.13;;;7.50;;
29314;SDS011;16320;53.954;9.506;2023-11-19T08:10:59;65.63;;;9.63;;
29314;SDS011;16320;53.954;9.506;2023-11-19T08:13:49;61.75;;;8.57;;
29314;SDS011;16320;53.954;9.506;2023-11-19T08:16:30;69.57;;;9.63;;
29314;SDS011;16320;53.954;9.506;2023-11-19T08:19:05;67.85;;;9.85;;
29314;SDS011;16320;53.954;9.506;2023-11-19T08:21:57;78.45;;;12.30;;
29314;SDS011;16320;53.954;9.506;2023-11-19T08:24:32;74.00;;;8.75;;
29314;SDS011;16320;53.954;9.506;2023-11-19T08:27:14;75.05;;;9.05;;
29314;SDS011;16320;53.954;9.506;2023-11-19T08:29:57;72.57;;;7.53;;
29314;SDS011;16320;53.954;9.506;2023-11-19T08:32:28;58.03;;;8.20;;
29314;SDS011;16320;53.954;9.506;2023-11-19T08:35:10;68.90;;;8.50;;
29314;SDS011;16320;53.954;9.506;2023-11-19T08:40:12;60.05;;;7.25;;
29314;SDS011;16320;53.954;9.506;2023-11-19T08:42:50;65.18;;;9.38;;
29314;SDS011;16320;53.954;9.506;2023-11-19T08:45:25;61.00;;;8.40;;
29314;SDS011;16320;53.954;9.506;2023-11-19T08:47:55;72.38;;;10.60;;
29314;SDS011;16320;53.954;9.506;2023-11-19T08:50:24;70.10;;;10.88;;
29314;SDS011;16320;53.954;9.506;2023-11-19T08:52:57;68.15;;;8.55;;
29314;SDS011;16320;53.954;9.506;2023-11-19T08:55:28;61.28;;;9.40;;
29314;SDS011;16320;53.954;9.506;2023-11-19T08:58:11;73.47;;;8.38;;
29314;SDS011;16320;53.954;9.506;2023-11-19T09:00:39;72.18;;;11.05;;
29314;SDS011;16320;53.954;9.506;2023-11-19T09:03:11;81.65;;;9.60;;
29314;SDS011;16320;53.954;9.506;2023-11-19T09:05:41;67.20;;;10.73;;
29314;SDS011;16320;53.954;9.506;2023-11-19T09:08:19;57.83;;;9.35;;
29314;SDS011;16320;53.954;9.506;2023-11-19T09:10:56;70.95;;;9.45;;
29314;SDS011;16320;53.954;9.506;2023-11-19T09:13:26;81.07;;;13.90;;
29314;SDS011;16320;53.954;9.506;2023-11-19T09:15:55;59.28;;;8.90;;
29314;SDS011;16320;53.954;9.506;2023-11-19T09:18:29;64.25;;;11.02;;
29314;SDS011;16320;53.954;9.506;2023-11-19T09:21:06;64.00;;;9.20;;
29314;SDS011;16320;53.954;9.506;2023-11-19T09:23:36;65.05;;;9.73;;
29314;SDS011;16320;53.954;9.506;2023-11-19T09:26:08;59.38;;;8.82;;
29314;SDS011;16320;53.954;9.506;2023-11-19T09:28:36;71.30;;;8.30;;
29314;SDS011;16320;53.954;9.506;2023-11-19T09:31:14;65.75;;;8.48;;
29314;SDS011;16320;53.954;9.506;2023-11-19T09:33:45;69.47;;;9.02;;
29314;SDS011;16320;53.954;9.506;2023-11-19T09:36:13;58.92;;;9.50;;
29314;SDS011;16320;53.954;9.506;2023-11-19T09:38:45;54.55;;;8.40;;
29314;SDS011;16320;53.954;9.506;2023-11-19T09:41:13;91.22;;;12.63;;
29314;SDS011;16320;53.954;9.506;2023-11-19T09:43:44;79.63;;;9.90;;
29314;SDS011;16320;53.954;9.506;2023-11-19T09:46:13;52.95;;;10.13;;
29314;SDS011;16320;53.954;9.506;2023-11-19T09:48:42;68.85;;;8.93;;
29314;SDS011;16320;53.954;9.506;2023-11-19T09:51:12;68.28;;;9.65;;
29314;SDS011;16320;53.954;9.506;2023-11-19T09:53:40;66.68;;;9.88;;
29314;SDS011;16320;53.954;9.506;2023-11-19T09:56:08;58.22;;;7.68;;
29314;SDS011;16320;53.954;9.506;2023-11-19T09:58:40;66.90;;;9.50;;
29314;SDS011;16320;53.954;9.506;2023-11-19T10:01:09;60.97;;;8.30;;
29314;SDS011;16320;53.954;9.506;2023-11-19T10:03:41;59.28;;;7.22;;
29314;SDS011;16320;53.954;9.506;2023-11-19T10:06:13;60.70;;;8.02;;
29314;SDS011;16320;53.954;9.506;2023-11-19T10:08:45;58.35;;;9.15;;
29314;SDS011;16320;53.954;9.506;2023-11-19T10:11:14;51.70;;;7.80;;
29314;SDS011;16320;53.954;9.506;2023-11-19T10:13:42;52.83;;;7.47;;
29314;SDS011;16320;53.954;9.506;2023-11-19T10:16:14;55.63;;;10.05;;
29314;SDS011;16320;53.954;9.506;2023-11-19T10:18:47;66.95;;;10.02;;
29314;SDS011;16320;53.954;9.506;2023-11-19T10:21:18;69.47;;;12.27;;
29314;SDS011;16320;53.954;9.506;2023-11-19T10:26:26;59.47;;;10.10;;
29314;SDS011;16320;53.954;9.506;2023-11-19T10:28:56;67.38;;;11.02;;
29314;SDS011;16320;53.954;9.506;2023-11-19T10:31:24;68.78;;;9.75;;
29314;SDS011;16320;53.954;9.506;2023-11-19T10:33:53;68.88;;;11.55;;
29314;SDS011;16320;53.954;9.506;2023-11-19T10:36:21;62.42;;;10.02;;
29314;SDS011;16320;53.954;9.506;2023-11-19T10:38:52;54.22;;;8.88;;
29314;SDS011;16320;53.954;9.506;2023-11-19T10:41:26;65.00;;;8.67;;
29314;SDS011;16320;53.954;9.506;2023-11-19T10:43:55;84.60;;;10.48;;
29314;SDS011;16320;53.954;9.506;2023-11-19T10:46:38;60.83;;;8.80;;
29314;SDS011;16320;53.954;9.506;2023-11-19T10:49:09;86.38;;;9.93;;
29314;SDS011;16320;53.954;9.506;2023-11-19T10:51:42;69.88;;;8.15;;
29314;SDS011;16320;53.954;9.506;2023-11-19T10:54:15;65.90;;;9.70;;
29314;SDS011;16320;53.954;9.506;2023-11-19T10:56:49;53.03;;;8.38;;
29314;SDS011;16320;53.954;9.506;2023-11-19T10:59:30;72.97;;;8.95;;
29314;SDS011;16320;53.954;9.506;2023-11-19T11:02:00;69.22;;;8.15;;
29314;SDS011;16320;53.954;9.506;2023-11-19T11:04:35;69.50;;;7.65;;
29314;SDS011;16320;53.954;9.506;2023-11-19T11:07:08;61.42;;;7.45;;
29314;SDS011;16320;53.954;9.506;2023-11-19T11:09:37;66.70;;;7.40;;
29314;SDS011;16320;53.954;9.506;2023-11-19T11:12:07;71.32;;;8.43;;
29314;SDS011;16320;53.954;9.506;2023-11-19T11:14:38;70.90;;;9.65;;
29314;SDS011;16320;53.954;9.506;2023-11-19T11:17:09;66.18;;;10.55;;
29314;SDS011;16320;53.954;9.506;2023-11-19T11:19:44;67.60;;;9.32;;
29314;SDS011;16320;53.954;9.506;2023-11-19T11:22:14;65.45;;;10.32;;
29314;SDS011;16320;53.954;9.506;2023-11-19T11:28:43;59.22;;;9.45;;
29314;SDS011;16320;53.954;9.506;2023-11-19T11:31:47;52.45;;;7.25;;
29314;SDS011;16320;53.954;9.506;2023-11-19T11:38:17;62.65;;;9.80;;
29314;SDS011;16320;53.954;9.506;2023-11-19T11:43:47;59.78;;;8.77;;
29314;SDS011;16320;53.954;9.506;2023-11-19T11:49:09;68.15;;;9.23;;
29314;SDS011;16320;53.954;9.506;2023-11-19T12:02:08;55.15;;;8.05;;
29314;SDS011;16320;53.954;9.506;2023-11-19T12:04:39;56.60;;;7.82;;
29314;SDS011;16320;53.954;9.506;2023-11-19T12:07:11;72.75;;;9.80;;
29314;SDS011;16320;53.954;9.506;2023-11-19T12:09:47;72.57;;;9.38;;
29314;SDS011;16320;53.954;9.506;2023-11-19T12:12:22;68.25;;;9.02;;
29314;SDS011;16320;53.954;9.506;2023-11-19T12:17:49;69.25;;;7.18;;
29314;SDS011;16320;53.954;9.506;2023-11-19T12:20:18;67.65;;;9.65;;
29314;SDS011;16320;53.954;9.506;2023-11-19T12:22:54;75.75;;;10.18;;
29314;SDS011;16320;53.954;9.506;2023-11-19T12:25:22;65.85;;;9.57;;
29314;SDS011;16320;53.954;9.506;2023-11-19T12:27:52;72.93;;;9.52;;
29314;SDS011;16320;53.954;9.506;2023-11-19T12:32:52;66.60;;;9.02;;
29314;SDS011;16320;53.954;9.506;2023-11-19T12:35:22;67.97;;;8.80;;
29314;SDS011;16320;53.954;9.506;2023-11-19T12:37:51;63.88;;;8.73;;
29314;SDS011;16320;53.954;9.506;2023-11-19T12:40:23;73.10;;;8.20;;
29314;SDS011;16320;53.954;9.506;2023-11-19T12:42:55;71.55;;;8.82;;
29314;SDS011;16320;53.954;9.506;2023-11-19T12:45:24;68.60;;;9.35;;
29314;SDS011;16320;53.954;9.506;2023-11-19T12:48:04;63.97;;;8.82;;
29314;SDS011;16320;53.954;9.506;2023-11-19T12:53:50;59.95;;;9.02;;
29314;SDS011;16320;53.954;9.506;2023-11-19T12:56:23;63.58;;;8.43;;
29314;SDS011;16320;53.954;9.506;2023-11-19T12:58:54;58.30;;;7.85;;
29314;SDS011;16320;53.954;9.506;2023-11-19T13:01:25;61.25;;;7.43;;
29314;SDS011;16320;53.954;9.506;2023-11-19T13:03:57;46.70;;;8.20;;
29314;SDS011;16320;53.954;9.506;2023-11-19T13:06:25;63.30;;;8.82;;
29314;SDS011;16320;53.954;9.506;2023-11-19T13:08:56;85.97;;;9.27;;
29314;SDS011;16320;53.954;9.506;2023-11-19T13:11:32;57.83;;;7.32;;
29314;SDS011;16320;53.954;9.506;2023-11-19T13:14:04;56.80;;;9.23;;
29314;SDS011;16320;53.954;9.506;2023-11-19T13:16:37;37.50;;;6.80;;
29314;SDS011;16320;53.954;9.506;2023-11-19T13:19:06;51.47;;;6.80;;
29314;SDS011;16320;53.954;9.506;2023-11-19T13:21:35;56.55;;;8.18;;
29314;SDS011;16320;53.954;9.506;2023-11-19T13:24:04;54.70;;;6.88;;
29314;SDS011;16320;53.954;9.506;2023-11-19T13:26:36;58.35;;;7.53;;
29314;SDS011;16320;53.954;9.506;2023-11-19T13:29:05;43.88;;;5.78;;
29314;SDS011;16320;53.954;9.506;2023-11-19T13:31:33;37.50;;;6.60;;
29314;SDS011;16320;53.954;9.506;2023-11-19T13:34:03;36.00;;;5.50;;
29314;SDS011;16320;53.954;9.506;2023-11-19T13:36:34;57.08;;;5.93;;
29314;SDS011;16320;53.954;9.506;2023-11-19T13:39:03;51.78;;;6.60;;
29314;SDS011;16320;53.954;9.506;2023-11-19T13:41:31;34.50;;;4.82;;
29314;SDS011;16320;53.954;9.506;2023-11-19T13:43:59;38.15;;;5.07;;
29314;SDS011;16320;53.954;9.506;2023-11-19T13:46:27;29.27;;;4.45;;
29314;SDS011;16320;53.954;9.506;2023-11-19T13:48:56;24.83;;;4.05;;
29314;SDS011;16320;53.954;9.506;2023-11-19T13:51:31;21.13;;;4.82;;
29314;SDS011;16320;53.954;9.506;2023-11-19T13:53:59;28.92;;;4.45;;
29314;SDS011;16320;53.954;9.506;2023-11-19T13:56:30;25.00;;;4.65;;
29314;SDS011;16320;53.954;9.506;2023-11-19T13:58:58;28.20;;;3.20;;
29314;SDS011;16320;53.954;9.506;2023-11-19T14:01:26;25.45;;;3.50;;
29314;SDS011;16320;53.954;9.506;2023-11-19T14:03:54;18.65;;;3.55;;
29314;SDS011;16320;53.954;9.506;2023-11-19T14:06:22;24.95;;;3.50;;
29314;SDS011;16320;53.954;9.506;2023-11-19T14:08:50;23.40;;;3.72;;
29314;SDS011;16320;53.954;9.506;2023-11-19T14:11:18;18.50;;;3.03;;
29314;SDS011;16320;53.954;9.506;2023-11-19T14:13:48;15.95;;;4.22;;
29314;SDS011;16320;53.954;9.506;2023-11-19T14:16:16;20.48;;;3.13;;
29314;SDS011;16320;53.954;9.506;2023-11-19T14:18:44;26.63;;;4.50;;
29314;SDS011;16320;53.954;9.506;2023-11-19T14:21:15;33.13;;;5.63;;
29314;SDS011;16320;53.954;9.506;2023-11-19T14:23:43;31.95;;;5.85;;
29314;SDS011;16320;53.954;9.506;2023-11-19T14:26:12;18.55;;;4.05;;
29314;SDS011;16320;53.954;9.506;2023-11-19T14:28:42;20.48;;;3.28;;
29314;SDS011;16320;53.954;9.506;2023-11-19T14:31:14;22.88;;;3.70;;
29314;SDS011;16320;53.954;9.506;2023-11-19T14:33:42;23.50;;;3.50;;
29314;SDS011;16320;53.954;9.506;2023-11-19T14:36:10;18.60;;;3.70;;
29314;SDS011;16320;53.954;9.506;2023-11-19T14:38:39;24.50;;;4.88;;
29314;SDS011;16320;53.954;9.506;2023-11-19T14:41:08;16.58;;;3.22;;
29314;SDS011;16320;53.954;9.506;2023-11-19T14:43:38;19.60;;;3.40;;
29314;SDS011;16320;53.954;9.506;2023-11-19T14:46:07;25.05;;;4.25;;
29314;SDS011;16320;53.954;9.506;2023-11-19T14:48:36;18.10;;;2.92;;
29314;SDS011;16320;53.954;9.506;2023-11-19T14:51:04;12.55;;;3.35;;
29314;SDS011;16320;53.954;9.506;2023-11-19T14:53:33;33.38;;;3.97;;
29314;SDS011;16320;53.954;9.506;2023-11-19T14:56:02;20.38;;;3.75;;
29314;SDS011;16320;53.954;9.506;2023-11-19T14:58:31;27.38;;;3.78;;
29314;SDS011;16320;53.954;9.506;2023-11-19T15:01:01;32.20;;;5.05;;
29314;SDS011;16320;53.954;9.506;2023-11-19T15:03:31;29.98;;;5.07;;
29314;SDS011;16320;53.954;9.506;2023-11-19T15:06:22;30.75;;;4.00;;
29314;SDS011;16320;53.954;9.506;2023-11-19T15:08:53;34.58;;;6.25;;
29314;SDS011;16320;53.954;9.506;2023-11-19T15:11:22;31.95;;;5.90;;
29314;SDS011;16320;53.954;9.506;2023-11-19T15:13:50;38.92;;;6.28;;
29314;SDS011;16320;53.954;9.506;2023-11-19T15:16:20;39.83;;;6.45;;
29314;SDS011;16320;53.954;9.506;2023-11-19T15:18:57;37.22;;;5.88;;
29314;SDS011;16320;53.954;9.506;2023-11-19T15:21:30;45.65;;;6.55;;
29314;SDS011;16320;53.954;9.506;2023-11-19T15:23:59;43.58;;;5.75;;
29314;SDS011;16320;53.954;9.506;2023-11-19T15:26:30;43.55;;;5.72;;
29314;SDS011;16320;53.954;9.506;2023-11-19T15:29:15;30.27;;;4.28;;
29314;SDS011;16320;53.954;9.506;2023-11-19T15:32:07;27.23;;;4.65;;
29314;SDS011;16320;53.954;9.506;2023-11-19T15:34:43;27.25;;;4.38;;
29314;SDS011;16320;53.954;9.506;2023-11-19T15:37:11;38.78;;;4.38;;
29314;SDS011;16320;53.954;9.506;2023-11-19T15:39:41;28.85;;;4.60;;
29314;SDS011;16320;53.954;9.506;2023-11-19T15:42:10;23.27;;;3.70;;
29314;SDS011;16320;53.954;9.506;2023-11-19T15:44:39;24.20;;;3.40;;
29314;SDS011;16320;53.954;9.506;2023-11-19T15:47:12;18.92;;;2.97;;
29314;SDS011;16320;53.954;9.506;2023-11-19T15:49:41;31.23;;;4.05;;
29314;SDS011;16320;53.954;9.506;2023-11-19T15:52:11;27.00;;;4.03;;
29314;SDS011;16320;53.954;9.506;2023-11-19T15:54:42;32.45;;;5.63;;
29314;SDS011;16320;53.954;9.506;2023-11-19T15:57:11;35.25;;;6.57;;